createdAt,value
2018-05-14T00:00:39.434Z,7.57
2018-05-14T00:03:43.494Z,7.60
2018-05-14T00:06:46.751Z,5.70
2018-05-14T00:09:50.769Z,6.70
2018-05-14T00:12:54.261Z,6.77
2018-05-14T00:15:58.291Z,7.20
2018-05-14T00:19:01.537Z,6.77
2018-05-14T00:22:04.789Z,7.60
2018-05-14T00:25:08.073Z,6.83
2018-05-14T00:28:12.195Z,6.70
2018-05-14T00:31:15.461Z,8.30
2018-05-14T00:34:18.714Z,7.97
2018-05-14T00:37:21.966Z,8.33
2018-05-14T00:40:25.993Z,8.07
2018-05-14T00:43:30.030Z,7.97
2018-05-14T00:46:33.315Z,8.88
2018-05-14T00:49:37.075Z,8.17
2018-05-14T00:52:40.346Z,8.63
2018-05-14T00:55:44.365Z,8.47
2018-05-14T00:58:47.631Z,8.53
2018-05-14T01:01:51.659Z,8.30
2018-05-14T01:04:54.952Z,8.00
2018-05-14T01:07:58.230Z,7.77
2018-05-14T01:11:02.257Z,8.67
2018-05-14T01:14:05.515Z,8.17
2018-05-14T01:17:08.774Z,9.50
2018-05-14T01:20:12.022Z,8.23
2018-05-14T01:23:15.357Z,9.37
2018-05-14T01:26:18.626Z,9.13
2018-05-14T01:29:22.649Z,9.00
2018-05-14T01:32:26.707Z,9.40
2018-05-14T01:35:30.117Z,10.50
2018-05-14T01:38:33.382Z,8.57
2018-05-14T01:41:36.649Z,9.73
2018-05-14T01:44:39.916Z,10.20
2018-05-14T01:47:43.175Z,9.60
2018-05-14T01:50:48.221Z,10.00
2018-05-14T01:53:51.509Z,10.07
2018-05-14T01:56:54.774Z,9.23
2018-05-14T01:59:58.790Z,9.17
2018-05-14T02:03:02.843Z,8.47
2018-05-14T02:06:06.102Z,8.20
2018-05-14T02:09:09.362Z,8.87
2018-05-14T02:12:12.634Z,9.10
2018-05-14T02:15:15.885Z,9.13
2018-05-14T02:18:19.147Z,9.17
2018-05-14T02:21:23.187Z,10.35
2018-05-14T02:24:26.444Z,10.77
2018-05-14T02:27:29.703Z,9.50
2018-05-14T02:30:33.804Z,10.93
2018-05-14T02:33:37.246Z,11.00
2018-05-14T02:36:40.507Z,12.90
2018-05-14T02:39:43.763Z,12.47
2018-05-14T02:42:47.081Z,11.60
2018-05-14T02:45:50.377Z,11.60
2018-05-14T02:48:53.634Z,10.93
2018-05-14T02:51:56.926Z,11.03
2018-05-14T02:55:00.195Z,11.37
2018-05-14T02:58:04.287Z,11.80
2018-05-14T03:01:07.561Z,10.87
2018-05-14T03:04:10.830Z,12.23
2018-05-14T03:07:14.098Z,11.17
2018-05-14T03:10:17.415Z,11.17
2018-05-14T03:13:21.477Z,11.57
2018-05-14T03:16:24.770Z,10.73
2018-05-14T03:19:28.153Z,11.33
2018-05-14T03:22:31.433Z,11.15
2018-05-14T03:25:34.722Z,11.10
2018-05-14T03:28:38.847Z,10.33
2018-05-14T03:31:42.882Z,10.07
2018-05-14T03:34:46.145Z,11.53
2018-05-14T03:37:49.419Z,11.70
2018-05-14T03:40:52.674Z,10.77
2018-05-14T03:43:56.799Z,9.87
2018-05-14T03:47:00.078Z,9.33
2018-05-14T03:50:04.122Z,11.63
2018-05-14T03:53:07.402Z,11.03
2018-05-14T03:56:11.426Z,10.67
2018-05-14T03:59:32.458Z,10.13
2018-05-14T04:02:53.498Z,10.00
2018-05-14T04:06:14.495Z,9.47
2018-05-14T04:09:17.782Z,9.60
2018-05-14T04:12:21.071Z,10.07
2018-05-14T04:15:25.094Z,11.23
2018-05-14T04:18:29.132Z,11.03
2018-05-14T04:21:32.456Z,12.07
2018-05-14T04:24:35.725Z,12.40
2018-05-14T04:27:39.006Z,11.60
2018-05-14T04:30:43.037Z,12.50
2018-05-14T04:33:46.303Z,11.30
2018-05-14T04:36:50.354Z,11.87
2018-05-14T04:39:53.683Z,13.07
2018-05-14T04:42:56.958Z,11.47
2018-05-14T04:46:00.255Z,12.13
2018-05-14T04:49:04.316Z,11.07
2018-05-14T04:52:07.808Z,12.93
2018-05-14T04:55:11.221Z,13.43
2018-05-14T04:58:14.541Z,12.73
2018-05-14T05:01:17.942Z,13.73
2018-05-14T05:04:21.605Z,14.17
2018-05-14T05:07:25.651Z,14.93
2018-05-14T05:10:29.013Z,14.73
2018-05-14T05:13:32.238Z,14.43
2018-05-14T05:16:35.531Z,15.00
2018-05-14T05:19:39.566Z,13.97
2018-05-14T05:22:42.954Z,15.00
2018-05-14T05:25:46.145Z,15.47
2018-05-14T05:28:49.427Z,14.67
2018-05-14T05:31:52.702Z,12.90
2018-05-14T05:34:56.738Z,14.27
2018-05-14T05:38:00.062Z,14.37
2018-05-14T05:41:04.069Z,13.00
2018-05-14T05:44:07.387Z,13.67
2018-05-14T05:47:10.658Z,14.02
2018-05-14T05:50:14.701Z,13.37
2018-05-14T05:53:17.966Z,13.93
2018-05-14T05:56:21.227Z,13.17
2018-05-14T05:59:24.491Z,11.80
2018-05-14T06:02:27.827Z,12.23
2018-05-14T06:05:31.918Z,13.40
2018-05-14T06:08:35.210Z,13.00
2018-05-14T06:11:38.526Z,13.48
2018-05-14T06:14:41.791Z,12.47
2018-05-14T06:17:45.815Z,13.67
2018-05-14T06:20:49.857Z,13.23
2018-05-14T06:23:53.251Z,11.93
2018-05-14T06:26:56.568Z,12.97
2018-05-14T06:29:59.836Z,12.93
2018-05-14T06:33:03.097Z,12.63
2018-05-14T06:36:07.130Z,13.27
2018-05-14T06:39:10.402Z,13.77
2018-05-14T06:42:15.162Z,13.27
2018-05-14T06:45:18.423Z,14.57
2018-05-14T06:48:21.705Z,14.03
2018-05-14T06:51:24.992Z,13.37
2018-05-14T06:54:29.943Z,13.10
2018-05-14T06:57:33.198Z,13.10
2018-05-14T07:00:37.990Z,14.30
2018-05-14T07:03:41.267Z,12.93
2018-05-14T07:06:45.298Z,12.17
2018-05-14T07:09:48.573Z,12.00
2018-05-14T07:12:52.618Z,11.27
2018-05-14T07:15:55.888Z,10.03
2018-05-14T07:19:00.538Z,10.37
2018-05-14T07:22:04.661Z,10.87
2018-05-14T07:25:08.682Z,10.37
2018-05-14T07:28:12.733Z,10.70
2018-05-14T07:31:16.137Z,10.90
2018-05-14T07:34:19.437Z,10.80
2018-05-14T07:37:22.774Z,10.93
2018-05-14T07:40:26.118Z,10.43
2018-05-14T07:43:31.100Z,10.13
2018-05-14T07:46:34.390Z,10.20
2018-05-14T07:49:37.720Z,10.43
2018-05-14T07:52:41.846Z,9.40
2018-05-14T07:55:45.097Z,9.50
2018-05-14T07:58:48.357Z,10.27
2018-05-14T08:01:51.627Z,9.73
2018-05-14T08:04:55.755Z,9.90
2018-05-14T08:07:59.778Z,9.93
2018-05-14T08:11:03.810Z,9.97
2018-05-14T08:14:07.957Z,10.50
2018-05-14T08:17:11.226Z,9.83
2018-05-14T08:20:14.954Z,10.50
2018-05-14T08:23:18.987Z,9.87
2018-05-14T08:26:22.263Z,10.30
2018-05-14T08:29:25.591Z,9.57
2018-05-14T08:32:28.889Z,9.47
2018-05-14T08:35:33.073Z,9.73
2018-05-14T08:38:36.338Z,8.97
2018-05-14T08:41:40.585Z,10.15
2018-05-14T08:44:43.856Z,9.40
2018-05-14T08:47:48.087Z,9.70
2018-05-14T08:50:51.381Z,9.97
2018-05-14T08:53:55.410Z,9.40
2018-05-14T08:56:59.446Z,9.97
2018-05-14T09:00:02.728Z,10.87
2018-05-14T09:03:05.981Z,10.73
2018-05-14T09:06:09.245Z,10.27
2018-05-14T09:09:13.324Z,10.83
2018-05-14T09:12:16.630Z,9.93
2018-05-14T09:15:19.897Z,7.97
2018-05-14T09:18:23.203Z,7.80
2018-05-14T09:21:26.413Z,8.03
2018-05-14T09:24:29.691Z,7.80
2018-05-14T09:27:33.763Z,7.33
2018-05-14T09:30:37.025Z,8.17
2018-05-14T09:33:40.329Z,8.20
2018-05-14T09:36:43.602Z,7.97
2018-05-14T09:39:46.880Z,7.17
2018-05-14T09:42:50.131Z,6.83
2018-05-14T09:45:54.260Z,8.73
2018-05-14T09:48:57.553Z,9.93
2018-05-14T09:52:00.879Z,9.77
2018-05-14T09:55:04.179Z,9.27
2018-05-14T09:58:07.474Z,9.80
2018-05-14T10:01:10.742Z,9.17
2018-05-14T10:04:14.008Z,9.60
2018-05-14T10:07:17.268Z,8.93
2018-05-14T10:10:21.395Z,9.07
2018-05-14T10:13:24.682Z,9.57
2018-05-14T10:16:28.882Z,10.33
2018-05-14T10:19:32.296Z,10.17
2018-05-14T10:22:36.474Z,9.80
2018-05-14T10:25:40.529Z,8.90
2018-05-14T10:28:43.798Z,9.47
2018-05-14T10:31:47.868Z,9.00
2018-05-14T10:34:51.322Z,9.57
2018-05-14T10:37:54.725Z,8.77
2018-05-14T10:40:59.057Z,10.13
2018-05-14T10:44:02.312Z,10.23
2018-05-14T10:47:05.694Z,10.07
2018-05-14T10:50:08.957Z,9.63
2018-05-14T10:53:12.978Z,8.77
2018-05-14T10:56:16.382Z,9.83
2018-05-14T10:59:19.736Z,10.23
2018-05-14T11:02:23.831Z,9.50
2018-05-14T11:05:27.179Z,10.33
2018-05-14T11:08:30.485Z,9.90
2018-05-14T11:11:34.539Z,10.32
2018-05-14T11:14:38.033Z,11.20
2018-05-14T11:17:41.312Z,10.70
2018-05-14T11:20:45.431Z,11.27
2018-05-14T11:23:49.461Z,10.97
2018-05-14T11:26:53.582Z,10.50
2018-05-14T11:29:57.716Z,9.93
2018-05-14T11:33:00.982Z,11.00
2018-05-14T11:36:04.282Z,10.50
2018-05-14T11:39:07.582Z,11.00
2018-05-14T11:42:10.890Z,14.67
2018-05-14T11:45:15.041Z,12.80
2018-05-14T11:48:19.152Z,12.77
2018-05-14T11:51:22.536Z,11.93
2018-05-14T11:54:25.814Z,11.70
2018-05-14T11:57:29.081Z,12.60
2018-05-14T12:00:32.346Z,14.07
2018-05-14T12:03:35.606Z,15.47
2018-05-14T12:06:38.868Z,15.77
2018-05-14T12:09:43.057Z,16.47
2018-05-14T12:12:46.473Z,17.00
2018-05-14T12:15:49.742Z,17.00
2018-05-14T12:18:53.008Z,16.27
2018-05-14T12:21:56.334Z,14.47
2018-05-14T12:24:59.636Z,15.57
2018-05-14T12:28:02.913Z,15.40
2018-05-14T12:31:06.956Z,14.67
2018-05-14T12:34:10.309Z,16.30
2018-05-14T12:37:14.446Z,16.00
2018-05-14T12:40:18.553Z,15.10
2018-05-14T12:43:22.025Z,14.83
2018-05-14T12:46:26.613Z,14.87
2018-05-14T12:49:30.678Z,15.87
2018-05-14T12:52:33.965Z,14.03
2018-05-14T12:55:37.494Z,16.50
2018-05-14T12:58:40.768Z,15.27
2018-05-14T13:01:44.070Z,15.20
2018-05-14T13:04:47.404Z,12.77
2018-05-14T13:07:50.735Z,10.13
2018-05-14T13:10:54.288Z,14.23
2018-05-14T13:13:57.648Z,14.47
2018-05-14T13:17:00.983Z,13.90
2018-05-14T13:20:04.297Z,14.03
2018-05-14T13:23:07.803Z,18.57
2018-05-14T13:26:11.194Z,19.10
2018-05-14T13:29:15.314Z,19.57
2018-05-14T13:32:46.132Z,15.20
2018-05-14T13:35:53.558Z,17.87
2018-05-14T13:38:57.653Z,17.87
2018-05-14T13:42:01.794Z,19.87
2018-05-14T13:45:05.835Z,15.40
2018-05-14T13:48:09.314Z,14.47
2018-05-14T13:51:13.515Z,15.07
2018-05-14T13:54:16.817Z,13.93
2018-05-14T13:57:20.176Z,14.23
2018-05-14T14:00:23.552Z,13.57
2018-05-14T14:03:27.728Z,12.07
2018-05-14T14:06:31.071Z,14.00
2018-05-14T14:09:35.931Z,11.60
2018-05-14T14:12:39.519Z,9.43
2018-05-14T14:15:42.827Z,8.30
2018-05-14T14:18:46.845Z,7.90
2018-05-14T14:21:50.908Z,6.10
2018-05-14T14:24:54.341Z,4.23
2018-05-14T14:27:57.674Z,3.47
2018-05-14T14:31:01.730Z,2.57
2018-05-14T14:34:05.057Z,1.80
2018-05-14T14:37:08.395Z,2.00
2018-05-14T14:40:12.469Z,1.87
2018-05-14T14:43:15.771Z,1.90
2018-05-14T14:46:19.078Z,1.90
2018-05-14T14:49:23.159Z,2.57
2018-05-14T14:52:28.025Z,2.50
2018-05-14T14:55:31.272Z,3.03
2018-05-14T14:58:35.324Z,2.93
2018-05-14T15:01:38.625Z,3.13
2018-05-14T15:04:41.958Z,2.73
2018-05-14T15:07:45.232Z,2.30
2018-05-14T15:10:48.514Z,2.43
2018-05-14T15:13:52.575Z,2.50
2018-05-14T15:16:56.269Z,3.37
2018-05-14T15:19:59.619Z,4.33
2018-05-14T15:23:02.882Z,4.47
2018-05-14T15:26:06.517Z,4.40
2018-05-14T15:29:11.378Z,4.00
2018-05-14T15:32:14.714Z,3.87
2018-05-14T15:35:18.203Z,3.77
2018-05-14T15:38:21.514Z,3.87
2018-05-14T15:41:24.801Z,3.80
2018-05-14T15:44:28.154Z,4.00
2018-05-14T15:47:31.418Z,3.90
2018-05-14T15:50:34.754Z,2.83
2018-05-14T15:53:38.050Z,2.23
2018-05-14T15:56:41.389Z,2.30
2018-05-14T15:59:45.442Z,2.27
2018-05-14T16:02:48.710Z,2.10
2018-05-14T16:05:52.753Z,1.97
2018-05-14T16:08:56.031Z,2.20
2018-05-14T16:12:00.054Z,2.03
2018-05-14T16:15:04.676Z,2.40
2018-05-14T16:18:08.168Z,2.10
2018-05-14T16:21:11.465Z,1.97
2018-05-14T16:24:14.729Z,2.33
2018-05-14T16:27:18.099Z,1.60
2018-05-14T16:30:22.114Z,1.57
2018-05-14T16:33:26.165Z,1.70
2018-05-14T16:36:29.426Z,1.67
2018-05-14T16:39:32.759Z,1.80
2018-05-14T16:42:36.819Z,1.80
2018-05-14T16:45:40.074Z,1.53
2018-05-14T16:48:43.343Z,1.57
2018-05-14T16:51:46.698Z,1.60
2018-05-14T16:54:50.735Z,1.43
2018-05-14T16:57:54.077Z,1.47
2018-05-14T17:00:57.281Z,1.83
2018-05-14T17:04:00.542Z,1.53
2018-05-14T17:07:04.573Z,1.75
2018-05-14T17:10:08.658Z,1.33
2018-05-14T17:13:13.465Z,1.17
2018-05-14T17:16:16.752Z,2.08
2018-05-14T17:19:20.773Z,1.40
2018-05-14T17:22:24.805Z,1.50
2018-05-14T17:25:29.943Z,1.50
2018-05-14T17:28:33.982Z,1.47
2018-05-14T17:31:37.251Z,1.43
2018-05-14T17:34:41.302Z,1.20
2018-05-14T17:37:44.571Z,1.67
2018-05-14T17:40:47.889Z,1.30
2018-05-14T17:43:51.374Z,1.40
2018-05-14T17:46:55.447Z,1.47
2018-05-14T17:49:58.741Z,1.60
2018-05-14T17:53:02.055Z,1.90
2018-05-14T17:56:05.323Z,1.70
2018-05-14T17:59:08.626Z,1.77
2018-05-14T18:02:11.900Z,1.97
2018-05-14T18:05:15.264Z,2.27
2018-05-14T18:08:18.493Z,2.30
2018-05-14T18:11:21.749Z,2.80
2018-05-14T18:14:25.017Z,3.00
2018-05-14T18:17:28.480Z,3.20
2018-05-14T18:20:32.426Z,3.60
2018-05-14T18:23:41.144Z,3.10
2018-05-14T18:26:46.194Z,3.20
2018-05-14T18:29:55.267Z,2.40
2018-05-14T18:33:02.393Z,2.43
2018-05-14T18:36:05.652Z,2.50
2018-05-14T18:39:08.975Z,1.67
2018-05-14T18:42:13.060Z,2.23
2018-05-14T18:45:16.336Z,2.03
2018-05-14T18:48:20.385Z,1.90
2018-05-14T18:51:23.713Z,1.60
2018-05-14T18:54:27.015Z,2.20
2018-05-14T18:57:30.281Z,2.20
2018-05-14T19:00:33.671Z,1.90
2018-05-14T19:03:37.346Z,2.43
2018-05-14T19:06:40.615Z,1.97
2018-05-14T19:09:43.873Z,1.70
2018-05-14T19:12:47.961Z,2.50
2018-05-14T19:15:56.876Z,2.50
2018-05-14T19:19:00.140Z,2.37
2018-05-14T19:22:03.400Z,2.20
2018-05-14T19:25:06.654Z,2.30
2018-05-14T19:28:15.659Z,1.90
2018-05-14T19:31:18.936Z,2.40
2018-05-14T19:34:27.734Z,3.03
2018-05-14T19:37:30.990Z,3.00
2018-05-14T19:40:40.493Z,3.10
2018-05-14T19:43:44.511Z,3.30
2018-05-14T19:46:48.928Z,4.50
2018-05-14T19:49:52.234Z,4.13
2018-05-14T19:52:55.684Z,4.97
2018-05-14T19:55:58.941Z,5.30
2018-05-14T19:59:02.204Z,5.27
2018-05-14T20:02:05.503Z,6.57
2018-05-14T20:05:09.943Z,6.77
2018-05-14T20:08:13.286Z,6.20
2018-05-14T20:11:16.552Z,7.00
2018-05-14T20:14:19.808Z,6.37
2018-05-14T20:17:23.838Z,6.50
2018-05-14T20:20:27.157Z,7.50
2018-05-14T20:23:31.894Z,8.00
2018-05-14T20:26:35.267Z,7.63
2018-05-14T20:29:38.905Z,8.50
2018-05-14T20:32:46.128Z,8.40
2018-05-14T20:35:49.857Z,7.23
2018-05-14T20:38:54.001Z,7.47
2018-05-14T20:41:58.325Z,8.07
2018-05-14T20:45:02.645Z,7.47
2018-05-14T20:48:05.911Z,8.98
2018-05-14T20:51:09.848Z,8.60
2018-05-14T20:54:13.377Z,8.83
2018-05-14T20:57:16.692Z,9.13
2018-05-14T21:00:21.676Z,9.10
2018-05-14T21:03:24.978Z,9.47
2018-05-14T21:06:28.258Z,8.13
2018-05-14T21:09:31.509Z,8.73
2018-05-14T21:12:37.361Z,9.00
2018-05-14T21:15:43.741Z,9.27
2018-05-14T21:18:54.780Z,7.80
2018-05-14T21:22:01.224Z,8.33
2018-05-14T21:25:05.173Z,7.87
2018-05-14T21:28:09.200Z,7.50
2018-05-14T21:31:12.548Z,7.73
2018-05-14T21:34:16.611Z,8.50
2018-05-14T21:37:20.713Z,7.03
2018-05-14T21:40:24.038Z,7.40
2018-05-14T21:43:27.502Z,6.50
2018-05-14T21:46:30.762Z,5.90
2018-05-14T21:49:34.742Z,5.97
2018-05-14T21:52:38.785Z,5.25
2018-05-14T21:55:42.267Z,4.63
2018-05-14T21:58:45.529Z,6.67
2018-05-14T22:01:48.803Z,7.00
2018-05-14T22:04:52.067Z,7.30
2018-05-14T22:07:55.327Z,6.53
2018-05-14T22:10:58.586Z,6.97
2018-05-14T22:14:01.834Z,7.07
2018-05-14T22:17:05.089Z,6.53
2018-05-14T22:20:09.119Z,6.40
2018-05-14T22:23:13.841Z,7.40
2018-05-14T22:26:17.880Z,6.17
2018-05-14T22:29:21.899Z,6.87
2018-05-14T22:32:25.361Z,6.40
2018-05-14T22:35:28.638Z,6.57
2018-05-14T22:38:32.676Z,6.33
2018-05-14T22:41:35.938Z,6.10
2018-05-14T22:44:39.965Z,6.60
2018-05-14T22:47:43.255Z,5.13
2018-05-14T22:50:47.756Z,5.77
2018-05-14T22:53:51.025Z,6.23
2018-05-14T22:56:55.048Z,5.37
2018-05-14T22:59:59.148Z,5.20
2018-05-14T23:03:02.407Z,6.47
2018-05-14T23:06:05.669Z,5.63
2018-05-14T23:09:08.942Z,5.33
2018-05-14T23:12:12.223Z,5.20
2018-05-14T23:15:15.493Z,5.30
2018-05-14T23:18:18.753Z,4.60
2018-05-14T23:21:22.785Z,5.30
2018-05-14T23:24:26.040Z,4.83
2018-05-14T23:27:29.312Z,4.60
2018-05-14T23:30:32.570Z,4.30
2018-05-14T23:33:35.832Z,4.50
2018-05-14T23:36:39.093Z,4.60
2018-05-14T23:39:42.357Z,4.13
2018-05-14T23:42:46.385Z,4.83
2018-05-14T23:45:49.660Z,4.73
2018-05-14T23:48:53.841Z,3.93
2018-05-14T23:51:57.106Z,4.87
2018-05-14T23:55:00.350Z,5.23
2018-05-14T23:58:03.641Z,4.87
